EDT,Max TemperatureF,Mean TemperatureF,Min TemperatureF,Max Dew PointF,MeanDew PointF,Min DewpointF,Max Humidity, Mean Humidity, Min Humidity, Max Sea Level PressureIn, Mean Sea Level PressureIn, Min Sea Level PressureIn, Max VisibilityMiles, Mean VisibilityMiles, Min VisibilityMiles, Max Wind SpeedMPH, Mean Wind SpeedMPH, Max Gust SpeedMPH,PrecipitationIn, CloudCover, Events, WindDirDegrees
2013-6-1,73,70,64,66,65,63,94,83,78,30.04,30.01,29.98,10,9,5,16,12,,0.00,0,,223
2013-6-2,69,66,64,64,64,63,94,88,83,29.93,29.91,29.86,10,10,8,22,17,26,0.00,1,,223
2013-6-3,64,62,60,64,63,61,100,97,94,29.89,29.86,29.83,7,2,0,14,11,24,0.00,7,Fog-Rain,228
2013-6-4,71,64,60,46,46,45,55,48,41,30.00,29.99,29.98,10,10,10,20,14,,0.00,0,,307
2013-6-5,,,,,,,,,,,,,,,,,,,,,,
2013-6-6,66,64,62,61,58,55,83,78,73,30.18,30.14,30.11,10,10,10,12,8,,0.00,5,,144
2013-6-7,60,58,57,61,58,57,100,97,94,29.99,29.89,29.73,8,2,0,18,9,,0.00,8,Fog-Rain,104
2013-6-8,69,62,57,63,59,55,94,86,78,29.91,29.86,29.80,10,10,10,14,12,,0.00,3,,296
2013-6-9,75,72,69,61,60,59,69,65,61,30.17,30.16,30.14,10,10,10,16,6,,0.00,1,,217
2013-6-10,66,63,60,63,61,59,100,93,88,30.16,30.09,30.03,3,2,2,7,5,,0.00,8,Rain,110
2013-6-11,73,70,68,70,67,66,94,88,83,29.74,29.72,29.68,10,8,5,18,13,,0.00,4,,237
2013-6-12,71,68,66,55,55,54,68,59,53,29.81,29.76,29.72,10,10,10,20,18,33,0.00,2,,313
2013-6-13,60,58,55,57,56,54,94,90,88,29.77,29.64,29.52,10,7,2,17,13,18,0.00,8,Rain,109
2013-6-14,66,62,59,55,53,52,82,71,64,29.80,29.76,29.68,10,10,10,12,9,22,0.00,5,,5
2013-6-15,73,68,66,57,54,50,73,58,46,29.98,29.97,29.96,10,10,10,14,12,,0.00,0,,312
2013-6-16,69,68,66,63,62,57,88,80,68,29.94,29.85,29.80,10,10,7,18,11,,0.00,4,,215
2013-6-17,77,73,69,68,66,64,88,81,74,29.91,29.89,29.88,10,9,7,16,12,,0.00,2,,225
2013-6-18,73,70,64,66,65,63,94,86,78,29.91,29.89,29.86,10,9,6,10,4,,0.00,6,Rain,190
2013-6-19,73,68,64,57,56,52,77,63,47,30.09,30.05,30.01,10,10,10,10,7,,0.00,1,,229
2013-6-20,73,70,68,57,56,54,68,62,53,30.29,30.28,30.27,10,10,10,14,10,,0.00,0,,236
2013-6-21,71,70,68,61,58,54,78,66,53,30.32,30.31,30.29,10,10,10,15,12,,0.00,0,,222
2013-6-22,66,,66,64,64,64,94,94,94,30.20,30.20,30.20,7,7,7,12,12,,0.00,3,,210
2013-6-23,77,74,69,70,68,64,94,82,73,30.21,30.16,30.12,10,10,10,17,13,25,0.00,2,,228
2013-6-24,86,78,69,75,72,70,100,80,62,30.06,30.02,29.96,10,7,0,12,6,,0.00,2,Fog,251
2013-6-25,84,81,78,73,71,70,78,71,66,29.96,29.92,29.85,10,10,7,12,7,,0.00,0,,247
2013-6-26,82,76,69,72,70,70,100,77,70,29.84,29.82,29.80,10,10,10,12,6,,0.00,3,,248
2013-6-27,75,73,71,70,69,68,94,89,83,29.82,29.80,29.76,10,9,5,7,4,,0.00,4,,100
2013-6-28,73,71,69,72,70,70,100,96,94,29.60,29.57,29.55,2,1,0,16,10,,0.00,8,Fog,211
2013-6-29,75,72,69,72,70,68,100,95,88,29.74,29.66,29.58,10,6,0,17,10,,0.00,6,Fog-Rain,209
2013-6-30,71,70,69,70,69,66,100,94,83,29.96,29.91,29.84,10,5,0,15,7,,0.00,8,Fog,202